Airfield :
LOGIN :

Register | Disclaimer

   EN    FR    IT 

 










Legend :    VFR   Marginal VFR   IFR   Intensive IFR   Very Intensive IFR
Visi :
Ceiling :
>= 8 km
>= 3000ft
5 to 8 km
1000 to 3000 ft
1500m to 5 km
500 to 1000 ft
800 to 1500m
200 to 500 ft
< 800m
< 200 ft
Symbols :   Thunderstorms  Fog  Heavy snow  Heavy precipitations  Wind > 20 kt
SIGMETs :     Misc.  Thunderstorms  Icing  Turbulence  Mountain Waves  Volcanic Ashes






- Airport Elevation : 465 ft


ENFB - Statfjord B Platform

CURRENT METAR :
  • 250050Z AUTO 17010KT 9999 SCT010/// 13/11 Q1011 W///S5

EXPIRED METARs :
  • 250020Z AUTO 17008KT 9999 SCT009/// 13/11 Q1011 W///S5
  • 242350Z AUTO 17007KT CAVOK 13/11 Q1012 W///S5
  • 242320Z AUTO VRB01KT CAVOK 13/11 Q1012 W///S5
  • 242250Z AUTO VRB01KT CAVOK 13/11 Q1012 W///S5
  • 242220Z AUTO 10004KT 5000 NCD 13/11 Q1013 W///S5
  • 242150Z AUTO 08004KT CAVOK 13/11 Q1013 W///S5
  • 242120Z AUTO 08004KT CAVOK 13/11 Q1013 W///S5
  • 242050Z AUTO 07004KT CAVOK 13/11 Q1013 W///S5
  • 242020Z AUTO 07004KT CAVOK 14/11 Q1014 W///S4

TAF N/A



MET'MAP, your aeronautical weather chart ! - Copyright ORBIFLY December 2007 - Disclaimer

ORBIFLY MET'MAP TEAM :

Programming & Development : Alexandra Zaïnal
Original concept : Baudouin d'Aumeries
Technical & hardware support : Manuel Goepfert
Assistance : Marc-Olivier Méhu




SOURCES & CREDITS :

   NOAA